createdAt,value
2023-06-05T00:00:27.961Z,51.38
2023-06-05T00:02:58.386Z,50.15
2023-06-05T00:05:28.619Z,49.97
2023-06-05T00:07:59.386Z,49.91
2023-06-05T00:10:29.668Z,49.77
2023-06-05T00:13:00.020Z,50.29
2023-06-05T00:15:30.830Z,48.79
2023-06-05T00:18:00.976Z,50.10
2023-06-05T00:20:31.439Z,50.12
2023-06-05T00:23:01.939Z,49.77
2023-06-05T00:25:32.926Z,54.84
2023-06-05T00:28:02.984Z,52.16
2023-06-05T00:30:33.319Z,51.75
2023-06-05T00:33:03.838Z,52.72
2023-06-05T00:35:34.219Z,51.65
2023-06-05T00:38:04.357Z,51.28
2023-06-05T00:40:35.036Z,51.09
2023-06-05T00:43:05.383Z,52.14
2023-06-05T00:45:35.838Z,51.76
2023-06-05T00:48:06.265Z,51.19
2023-06-05T00:50:57.470Z,54.29
2023-06-05T00:53:28.861Z,54.29
2023-06-05T00:55:59.808Z,53.40
2023-06-05T00:58:32.035Z,55.63
2023-06-05T01:01:03.614Z,52.34
2023-06-05T01:03:35.088Z,53.67
2023-06-05T01:06:05.342Z,54.50
2023-06-05T01:08:40.216Z,59.35
2023-06-05T01:11:19.105Z,56.96
2023-06-05T01:16:49.601Z,54.31
2023-06-05T01:19:20.657Z,56.30
2023-06-05T01:21:50.770Z,57.60
2023-06-05T01:24:21.193Z,58.66
2023-06-05T01:27:06.319Z,58.76
2023-06-05T01:29:55.948Z,58.76
2023-06-05T01:35:16.395Z,57.90
2023-06-05T01:37:48.594Z,56.77
2023-06-05T01:40:24.437Z,57.09
2023-06-05T01:42:56.589Z,56.27
2023-06-05T01:45:27.596Z,59.11
2023-06-05T01:47:58.716Z,59.29
2023-06-05T01:50:29.151Z,59.29
2023-06-05T01:52:59.243Z,55.61
2023-06-05T01:55:29.571Z,58.19
2023-06-05T01:57:59.818Z,56.27
2023-06-05T02:00:30.078Z,59.99
2023-06-05T02:03:00.346Z,57.91
2023-06-05T02:05:30.959Z,57.73
2023-06-05T02:08:02.356Z,57.29
2023-06-05T02:10:33.429Z,56.56
2023-06-05T02:13:03.674Z,58.44
2023-06-05T02:15:33.799Z,60.89
2023-06-05T02:18:05.046Z,58.04
2023-06-05T02:20:36.250Z,58.82
2023-06-05T02:23:06.689Z,59.20
2023-06-05T02:25:37.220Z,58.71
2023-06-05T02:28:07.601Z,60.97
2023-06-05T02:30:37.906Z,60.86
2023-06-05T02:33:08.398Z,59.46
2023-06-05T02:35:39.449Z,59.46
2023-06-05T02:38:15.966Z,59.87
2023-06-05T02:40:46.222Z,59.02
2023-06-05T02:43:16.814Z,57.41
2023-06-05T02:45:47.018Z,57.38
2023-06-05T02:48:17.385Z,58.28
2023-06-05T02:50:47.798Z,59.20
2023-06-05T02:53:18.356Z,58.78
2023-06-05T02:55:48.849Z,59.48
2023-06-05T02:58:20.600Z,57.63
2023-06-05T03:00:50.874Z,57.49
2023-06-05T03:03:21.171Z,58.10
2023-06-05T03:05:51.425Z,57.23
2023-06-05T03:08:21.608Z,57.75
2023-06-05T03:10:52.008Z,57.75
2023-06-05T03:13:22.668Z,57.10
2023-06-05T03:15:52.866Z,56.38
2023-06-05T03:18:23.128Z,56.38
2023-06-05T03:20:54.572Z,58.39
2023-06-05T03:23:45.718Z,57.78
2023-06-05T03:26:17.457Z,57.52
2023-06-05T03:28:47.863Z,58.75
2023-06-05T03:31:18.445Z,58.69
2023-06-05T03:33:48.724Z,58.71
2023-06-05T03:36:18.979Z,59.26
2023-06-05T03:38:49.106Z,59.01
2023-06-05T03:41:19.484Z,58.46
2023-06-05T03:43:50.074Z,58.73
2023-06-05T03:46:21.105Z,59.27
2023-06-05T03:48:51.513Z,59.27
2023-06-05T03:51:21.773Z,56.92
2023-06-05T03:53:52.141Z,57.24
2023-06-05T03:56:22.384Z,57.24
2023-06-05T03:58:52.909Z,58.86
2023-06-05T04:01:23.234Z,56.10
2023-06-05T04:03:54.555Z,56.10
2023-06-05T04:06:24.838Z,58.13
2023-06-05T04:08:54.982Z,58.13
2023-06-05T04:11:25.237Z,57.11
2023-06-05T04:14:16.320Z,55.63
2023-06-05T04:16:46.725Z,55.63
2023-06-05T04:19:17.187Z,57.70
2023-06-05T04:21:48.075Z,56.50
2023-06-05T04:24:18.500Z,55.66
2023-06-05T04:26:48.731Z,54.78
2023-06-05T04:29:19.023Z,53.77
2023-06-05T04:31:49.387Z,54.60
2023-06-05T04:34:20.048Z,54.60
2023-06-05T04:36:50.153Z,50.79
2023-06-05T04:39:20.400Z,53.84
2023-06-05T04:42:03.085Z,53.84
2023-06-05T04:44:22.315Z,51.06
2023-06-05T04:46:52.607Z,52.56
2023-06-05T04:49:23.971Z,52.57
2023-06-05T04:51:54.089Z,52.57
2023-06-05T04:54:24.377Z,51.55
2023-06-05T04:56:54.521Z,51.36
2023-06-05T04:59:24.846Z,46.96
2023-06-05T05:01:55.172Z,49.11
2023-06-05T05:04:25.510Z,47.24
2023-06-05T05:06:56.047Z,48.05
2023-06-05T05:09:26.579Z,51.23
2023-06-05T05:11:56.914Z,47.16
2023-06-05T05:14:28.300Z,47.16
2023-06-05T05:16:58.852Z,47.66
2023-06-05T05:19:29.352Z,44.37
2023-06-05T05:21:59.694Z,44.72
2023-06-05T05:24:29.835Z,44.72
2023-06-05T05:27:01.633Z,43.85
2023-06-05T05:29:32.426Z,43.21
2023-06-05T05:32:02.680Z,45.42
2023-06-05T05:34:33.222Z,45.42
2023-06-05T05:37:24.855Z,42.09
2023-06-05T05:43:51.843Z,43.28
2023-06-05T05:46:30.252Z,41.50
2023-06-05T05:50:24.221Z,41.54
2023-06-05T05:54:57.092Z,38.33
2023-06-05T05:57:27.499Z,38.19
2023-06-05T05:59:57.940Z,38.19
2023-06-05T06:02:28.277Z,39.43
2023-06-05T06:04:58.764Z,36.10
2023-06-05T06:07:29.280Z,36.47
2023-06-05T06:09:59.913Z,37.21
2023-06-05T06:12:30.521Z,34.42
2023-06-05T06:15:00.863Z,34.42
2023-06-05T06:17:31.405Z,35.64
2023-06-05T06:20:01.799Z,35.02
2023-06-05T06:22:32.116Z,34.14
2023-06-05T06:25:02.358Z,34.67
2023-06-05T06:27:35.744Z,33.12
2023-06-05T06:32:44.595Z,32.79
2023-06-05T06:35:14.776Z,34.27
2023-06-05T06:37:45.242Z,31.46
2023-06-05T06:40:16.026Z,31.46
2023-06-05T06:42:46.234Z,33.88
2023-06-05T06:45:16.967Z,33.88
2023-06-05T06:47:59.125Z,31.99
2023-06-05T06:50:19.439Z,31.99
2023-06-05T06:52:49.928Z,31.90
2023-06-05T06:55:20.606Z,30.52
2023-06-05T06:57:51.146Z,30.52
2023-06-05T07:00:21.534Z,28.58
2023-06-05T07:02:52.369Z,31.44
2023-06-05T07:05:22.851Z,31.74
2023-06-05T07:07:53.456Z,30.45
2023-06-05T07:10:24.419Z,29.96
2023-06-05T07:12:54.669Z,28.15
2023-06-05T07:15:25.391Z,28.15
2023-06-05T07:17:55.539Z,27.50
2023-06-05T07:20:25.777Z,26.37
2023-06-05T07:22:56.581Z,26.37
2023-06-05T07:25:26.735Z,28.85
2023-06-05T07:27:57.256Z,28.24
2023-06-05T07:30:28.214Z,27.23
2023-06-05T07:32:58.800Z,27.66
2023-06-05T07:35:28.849Z,27.66
2023-06-05T07:37:59.334Z,27.64
2023-06-05T07:40:29.579Z,26.81
2023-06-05T07:43:02.802Z,25.46
2023-06-05T07:45:33.881Z,24.26
2023-06-05T07:48:04.493Z,25.16
2023-06-05T07:50:34.878Z,25.16
2023-06-05T07:53:05.505Z,25.07
2023-06-05T07:55:36.289Z,25.04
2023-06-05T07:58:07.065Z,24.34
2023-06-05T08:00:37.292Z,26.79
2023-06-05T08:03:08.033Z,26.79
2023-06-05T08:05:40.764Z,24.74
2023-06-05T08:08:11.456Z,25.17
2023-06-05T08:10:42.245Z,25.56
2023-06-05T08:13:12.971Z,25.56
2023-06-05T08:15:44.018Z,25.88
2023-06-05T08:18:15.727Z,25.88
2023-06-05T08:20:45.968Z,25.05
2023-06-05T08:23:16.459Z,25.05
2023-06-05T08:25:46.906Z,25.14
2023-06-05T08:28:17.460Z,26.08
2023-06-05T08:30:48.045Z,26.60
2023-06-05T08:33:20.459Z,25.83
2023-06-05T08:35:50.392Z,25.56
2023-06-05T08:38:20.819Z,25.99
2023-06-05T08:40:54.107Z,24.80
2023-06-05T08:43:24.519Z,24.99
2023-06-05T08:45:58.001Z,24.99
2023-06-05T08:48:32.843Z,25.36
2023-06-05T08:51:03.121Z,25.28
2023-06-05T08:53:34.785Z,24.60
2023-06-05T08:56:05.557Z,24.60
2023-06-05T08:58:37.939Z,24.96
2023-06-05T09:01:08.390Z,24.43
2023-06-05T09:03:38.777Z,24.43
2023-06-05T09:06:11.682Z,24.71
2023-06-05T09:08:41.840Z,24.91
2023-06-05T09:11:26.927Z,23.55
2023-06-05T09:13:59.956Z,23.42
2023-06-05T09:16:41.757Z,23.42
2023-06-05T09:19:13.709Z,23.20
2023-06-05T09:24:51.935Z,23.42
2023-06-05T09:27:22.137Z,24.24
2023-06-05T09:29:55.415Z,24.24
2023-06-05T09:32:26.307Z,22.54
2023-06-05T09:34:57.680Z,24.54
2023-06-05T09:37:35.217Z,21.67
2023-06-05T09:40:06.656Z,23.92
2023-06-05T09:42:38.046Z,24.20
2023-06-05T09:45:29.032Z,23.94
2023-06-05T09:48:02.225Z,24.22
2023-06-05T09:50:35.355Z,25.49
2023-06-05T09:53:05.923Z,23.83
2023-06-05T09:55:37.408Z,23.83
2023-06-05T09:58:08.473Z,24.85
2023-06-05T10:00:44.045Z,24.25
2023-06-05T10:03:17.590Z,23.33
2023-06-05T10:05:49.560Z,21.86
2023-06-05T10:08:20.270Z,22.26
2023-06-05T10:10:50.718Z,22.26
2023-06-05T10:13:21.945Z,23.33
2023-06-05T10:15:55.449Z,23.33
2023-06-05T10:18:26.775Z,22.67
2023-06-05T10:20:59.717Z,22.67
2023-06-05T10:23:39.781Z,22.47
2023-06-05T10:26:16.587Z,22.47
2023-06-05T10:28:52.657Z,22.50
2023-06-05T10:31:25.778Z,22.50
2023-06-05T10:34:17.034Z,23.10
2023-06-05T10:37:19.222Z,21.90
2023-06-05T10:39:51.470Z,23.01
2023-06-05T10:42:26.924Z,22.10
2023-06-05T10:44:58.468Z,22.10
2023-06-05T10:47:39.737Z,23.21
2023-06-05T10:50:20.936Z,23.21
2023-06-05T10:52:52.982Z,23.97
2023-06-05T10:55:24.593Z,23.61
2023-06-05T10:58:12.400Z,23.61
2023-06-05T11:01:18.828Z,23.58
2023-06-05T11:03:55.047Z,23.55
2023-06-05T11:06:29.204Z,23.55
2023-06-05T11:09:16.362Z,23.53
2023-06-05T11:12:00.296Z,21.14
2023-06-05T11:14:52.028Z,22.04
2023-06-05T11:17:32.557Z,22.04
2023-06-05T11:20:31.595Z,20.90
2023-06-05T11:23:04.706Z,22.43
2023-06-05T11:25:36.431Z,21.82
2023-06-05T11:28:09.096Z,21.41
2023-06-05T11:30:47.794Z,21.41
2023-06-05T11:33:20.036Z,22.65
2023-06-05T11:35:52.733Z,23.25
2023-06-05T11:38:25.582Z,24.44
2023-06-05T11:40:56.347Z,24.44
2023-06-05T11:43:26.886Z,22.33
2023-06-05T11:45:59.112Z,21.53
2023-06-05T11:48:31.011Z,21.53
2023-06-05T11:51:03.722Z,21.70
2023-06-05T11:53:34.876Z,21.70
2023-06-05T11:56:08.953Z,22.22
2023-06-05T11:58:42.488Z,20.17
2023-06-05T12:01:23.960Z,20.17
2023-06-05T12:04:05.944Z,25.38
2023-06-05T12:06:45.494Z,25.38
2023-06-05T12:09:16.586Z,21.70
2023-06-05T12:11:47.499Z,21.96
2023-06-05T12:14:38.751Z,21.89
2023-06-05T12:17:13.017Z,21.89
2023-06-05T12:19:43.540Z,21.99
2023-06-05T12:22:14.796Z,21.07
2023-06-05T12:24:45.178Z,21.07
2023-06-05T12:27:15.622Z,21.83
2023-06-05T12:29:54.211Z,22.09
2023-06-05T12:32:27.405Z,22.63
2023-06-05T12:35:05.786Z,22.63
2023-06-05T12:37:37.146Z,22.50
2023-06-05T12:40:24.939Z,21.16
2023-06-05T12:42:48.884Z,21.16
2023-06-05T12:45:19.012Z,22.16
2023-06-05T12:47:51.406Z,20.56
2023-06-05T12:50:21.556Z,21.36
2023-06-05T12:52:52.101Z,21.36
2023-06-05T12:55:22.304Z,22.12
2023-06-05T12:57:52.747Z,22.12
2023-06-05T13:00:23.214Z,21.67
2023-06-05T13:02:53.746Z,21.68
2023-06-05T13:05:23.992Z,21.25
2023-06-05T13:07:54.174Z,22.18
2023-06-05T13:10:24.992Z,21.07
2023-06-05T13:12:55.251Z,21.72
2023-06-05T13:15:25.706Z,22.19
2023-06-05T13:17:56.142Z,22.19
2023-06-05T13:20:26.558Z,20.64
2023-06-05T13:22:56.739Z,21.62
2023-06-05T13:25:27.013Z,20.91
2023-06-05T13:27:57.491Z,20.91
2023-06-05T13:30:27.743Z,23.05
2023-06-05T13:32:57.968Z,22.96
2023-06-05T13:35:28.143Z,22.96
2023-06-05T13:37:59.789Z,22.50
2023-06-05T13:40:30.224Z,22.50
2023-06-05T13:43:00.930Z,22.44
2023-06-05T13:45:31.392Z,22.44
2023-06-05T13:48:01.725Z,21.74
2023-06-05T13:50:32.273Z,21.74
2023-06-05T13:53:02.518Z,24.84
2023-06-05T13:55:32.906Z,24.84
2023-06-05T13:58:03.492Z,23.88
2023-06-05T14:00:36.616Z,24.40
2023-06-05T14:03:06.957Z,24.21
2023-06-05T14:05:38.136Z,25.33
2023-06-05T14:08:08.268Z,25.33
2023-06-05T14:10:39.822Z,25.49
2023-06-05T14:13:10.598Z,25.49
2023-06-05T14:15:41.194Z,25.07
2023-06-05T14:18:11.596Z,25.05
2023-06-05T14:20:41.875Z,25.52
2023-06-05T14:23:12.353Z,26.09
2023-06-05T14:25:42.588Z,28.12
2023-06-05T14:28:13.336Z,26.74
2023-06-05T14:30:43.889Z,26.94
2023-06-05T14:33:14.081Z,26.94
2023-06-05T14:35:44.992Z,25.44
2023-06-05T14:38:15.466Z,26.21
2023-06-05T14:40:46.092Z,26.62
2023-06-05T14:43:16.367Z,25.29
2023-06-05T14:45:46.622Z,26.64
2023-06-05T14:48:16.870Z,26.35
2023-06-05T14:50:47.436Z,26.35
2023-06-05T14:53:21.269Z,26.62
2023-06-05T14:55:51.315Z,28.01
2023-06-05T14:58:21.844Z,26.14
2023-06-05T15:00:56.751Z,27.25
2023-06-05T15:03:24.360Z,27.25
2023-06-05T15:05:57.507Z,27.96
2023-06-05T15:08:28.859Z,27.39
2023-06-05T15:11:01.667Z,27.55
2023-06-05T15:13:32.175Z,27.29
2023-06-05T15:16:02.443Z,28.20
2023-06-05T15:18:33.384Z,28.75
2023-06-05T15:21:04.181Z,26.76
2023-06-05T15:23:34.647Z,26.76
2023-06-05T15:26:05.028Z,28.19
2023-06-05T15:28:35.452Z,28.60
2023-06-05T15:31:07.422Z,27.94
2023-06-05T15:33:42.675Z,27.94
2023-06-05T15:36:16.142Z,28.38
2023-06-05T15:38:47.969Z,28.42
2023-06-05T15:41:19.873Z,28.42
2023-06-05T15:43:50.807Z,28.27
2023-06-05T15:46:20.962Z,28.27
2023-06-05T15:48:51.546Z,29.85
2023-06-05T15:51:21.787Z,29.85
2023-06-05T15:53:59.562Z,29.05
2023-06-05T15:56:26.194Z,28.57
2023-06-05T15:58:56.445Z,30.18
2023-06-05T16:01:26.660Z,30.18
2023-06-05T16:03:56.895Z,29.12
2023-06-05T16:06:27.246Z,27.65
2023-06-05T16:08:57.688Z,28.69
2023-06-05T16:11:27.769Z,30.06
2023-06-05T16:13:58.154Z,30.47
2023-06-05T16:16:28.584Z,30.47
2023-06-05T16:18:59.582Z,29.59
2023-06-05T16:21:32.955Z,30.40
2023-06-05T16:24:06.394Z,29.80
2023-06-05T16:26:39.024Z,29.86
2023-06-05T16:29:11.176Z,30.79
2023-06-05T16:31:41.397Z,31.02
2023-06-05T16:34:13.969Z,31.02
2023-06-05T16:36:46.793Z,31.13
2023-06-05T16:39:17.406Z,31.13
2023-06-05T16:41:49.998Z,29.63
2023-06-05T16:44:21.785Z,30.05
2023-06-05T16:46:52.659Z,30.28
2023-06-05T16:49:24.628Z,30.28
2023-06-05T16:51:55.700Z,30.46
2023-06-05T16:54:28.230Z,30.16
2023-06-05T16:57:01.363Z,30.32
2023-06-05T16:59:31.920Z,30.61
2023-06-05T17:02:11.376Z,30.61
2023-06-05T17:04:42.473Z,31.00
2023-06-05T17:07:20.463Z,31.35
2023-06-05T17:09:55.889Z,31.45
2023-06-05T17:12:33.320Z,32.38
2023-06-05T17:15:08.767Z,31.36
2023-06-05T17:17:41.278Z,31.36
2023-06-05T17:20:14.823Z,32.12
2023-06-05T17:22:45.327Z,33.47
2023-06-05T17:25:15.688Z,33.51
2023-06-05T17:27:45.870Z,33.51
2023-06-05T17:30:17.686Z,32.91
2023-06-05T17:32:48.718Z,33.41
2023-06-05T17:35:21.013Z,33.27
2023-06-05T17:37:51.432Z,33.30
2023-06-05T17:40:22.648Z,33.30
2023-06-05T17:42:53.172Z,35.36
2023-06-05T17:45:23.472Z,35.60
2023-06-05T17:47:53.888Z,37.08
2023-06-05T17:50:24.130Z,36.78
2023-06-05T17:52:57.608Z,36.78
2023-06-05T17:55:36.214Z,36.90
2023-06-05T17:58:45.343Z,37.47
2023-06-05T18:01:13.009Z,37.97
2023-06-05T18:03:46.253Z,37.97
2023-06-05T18:06:20.186Z,37.56
2023-06-05T18:09:00.369Z,41.09
2023-06-05T18:11:33.174Z,37.71
2023-06-05T18:14:05.329Z,38.06
2023-06-05T18:16:36.256Z,38.06
2023-06-05T18:19:07.332Z,37.90
2023-06-05T18:21:37.588Z,39.71
2023-06-05T18:24:08.478Z,39.65
2023-06-05T18:26:38.968Z,44.64
2023-06-05T18:29:09.677Z,44.15
2023-06-05T18:31:40.471Z,43.55
2023-06-05T18:34:10.751Z,43.55
2023-06-05T18:36:43.120Z,45.18
2023-06-05T18:39:14.881Z,41.47
2023-06-05T18:41:47.024Z,42.67
2023-06-05T18:44:19.607Z,40.94
2023-06-05T18:46:50.150Z,40.94
2023-06-05T18:49:20.620Z,41.96
2023-06-05T18:51:50.862Z,41.89
2023-06-05T18:54:22.606Z,41.89
2023-06-05T18:56:53.014Z,42.33
2023-06-05T18:59:24.438Z,41.02
2023-06-05T19:01:54.693Z,41.02
2023-06-05T19:04:25.018Z,40.81
2023-06-05T19:06:55.452Z,43.77
2023-06-05T19:09:25.894Z,43.77
2023-06-05T19:11:56.282Z,45.68
2023-06-05T19:14:26.384Z,42.90
2023-06-05T19:16:56.667Z,41.30
2023-06-05T19:19:27.089Z,41.30
2023-06-05T19:21:57.758Z,44.83
2023-06-05T19:24:28.132Z,46.26
2023-06-05T19:26:58.303Z,43.51
2023-06-05T19:29:28.652Z,43.51
2023-06-05T19:31:59.135Z,43.91
2023-06-05T19:34:30.173Z,44.83
2023-06-05T19:37:00.475Z,47.36
2023-06-05T19:39:30.892Z,47.36
2023-06-05T19:42:01.524Z,44.36
2023-06-05T19:44:33.582Z,45.43
2023-06-05T19:47:04.098Z,45.43
2023-06-05T19:49:35.899Z,45.28
2023-06-05T19:52:06.418Z,44.79
2023-06-05T19:54:57.376Z,44.36
2023-06-05T19:57:30.143Z,44.70
2023-06-05T20:00:00.668Z,44.70
2023-06-05T20:02:31.015Z,44.13
2023-06-05T20:05:01.139Z,44.00
2023-06-05T20:07:31.850Z,46.34
2023-06-05T20:10:02.354Z,44.25
2023-06-05T20:12:33.185Z,44.25
2023-06-05T20:15:08.936Z,43.09
2023-06-05T20:17:39.700Z,42.78
2023-06-05T20:20:15.346Z,49.52
2023-06-05T20:22:46.324Z,46.42
2023-06-05T20:25:16.769Z,46.42
2023-06-05T20:27:52.946Z,42.94
2023-06-05T20:30:23.404Z,42.94
2023-06-05T20:32:54.617Z,42.58
2023-06-05T20:35:26.239Z,42.58
2023-06-05T20:37:56.662Z,45.13
2023-06-05T20:40:27.564Z,48.57
2023-06-05T20:42:59.260Z,48.57
2023-06-05T20:45:30.028Z,43.70
2023-06-05T20:48:04.101Z,43.70
2023-06-05T20:50:34.577Z,43.95
2023-06-05T20:53:04.894Z,45.68
2023-06-05T20:55:35.366Z,49.39
2023-06-05T20:58:07.414Z,47.24
2023-06-05T21:00:38.373Z,51.81
2023-06-05T21:03:08.802Z,51.81
2023-06-05T21:05:39.394Z,51.18
2023-06-05T21:08:15.684Z,51.18
2023-06-05T21:10:45.862Z,46.10
2023-06-05T21:13:16.273Z,47.78
2023-06-05T21:15:46.460Z,49.00
2023-06-05T21:18:16.966Z,49.00
2023-06-05T21:20:49.118Z,54.48
2023-06-05T21:23:22.437Z,51.72
2023-06-05T21:25:52.701Z,60.67
2023-06-05T21:28:23.399Z,53.59
2023-06-05T21:30:53.817Z,51.17
2023-06-05T21:33:24.021Z,51.17
2023-06-05T21:35:54.200Z,55.00
2023-06-05T21:38:24.429Z,56.27
2023-06-05T21:40:54.879Z,56.27
2023-06-05T21:43:25.199Z,59.51
2023-06-05T21:45:55.301Z,50.51
2023-06-05T21:48:25.869Z,56.21
2023-06-05T21:50:56.798Z,57.24
2023-06-05T21:53:27.502Z,52.16
2023-06-05T21:55:57.783Z,52.50
2023-06-05T21:58:28.100Z,60.24
2023-06-05T22:00:58.723Z,60.24
2023-06-05T22:03:29.466Z,50.41
2023-06-05T22:05:59.808Z,50.27
2023-06-05T22:08:30.061Z,52.22
2023-06-05T22:11:00.463Z,53.95
2023-06-05T22:13:31.194Z,53.45
2023-06-05T22:16:02.015Z,56.96
2023-06-05T22:18:32.443Z,56.96
2023-06-05T22:21:02.541Z,56.62
2023-06-05T22:23:33.282Z,50.89
2023-06-05T22:26:03.867Z,52.08
2023-06-05T22:28:36.180Z,52.08
2023-06-05T22:31:14.907Z,59.16
2023-06-05T22:33:50.378Z,51.84
2023-06-05T22:36:35.533Z,57.74
2023-06-05T22:39:05.839Z,57.74
2023-06-05T22:41:36.371Z,60.94
2023-06-05T22:44:06.574Z,57.93
2023-06-05T22:46:36.867Z,54.24
2023-06-05T22:49:07.603Z,57.25
2023-06-05T22:51:38.090Z,56.58
2023-06-05T22:54:08.337Z,59.93
2023-06-05T22:56:39.208Z,59.93
2023-06-05T22:59:09.430Z,59.42
2023-06-05T23:01:39.785Z,56.33
2023-06-05T23:04:30.821Z,59.89
2023-06-05T23:07:01.091Z,61.03
2023-06-05T23:09:31.665Z,60.86
2023-06-05T23:12:01.836Z,62.01
2023-06-05T23:14:34.020Z,60.14
2023-06-05T23:17:05.353Z,60.14
2023-06-05T23:19:36.187Z,59.36
2023-06-05T23:22:06.957Z,59.51
2023-06-05T23:24:37.154Z,61.94
2023-06-05T23:27:07.837Z,59.47
2023-06-05T23:29:38.073Z,60.90
2023-06-05T23:32:10.284Z,60.90
2023-06-05T23:34:40.604Z,62.87
2023-06-05T23:37:10.931Z,60.65
2023-06-05T23:39:41.376Z,63.62
2023-06-05T23:42:11.829Z,61.17
2023-06-05T23:44:42.507Z,60.64
2023-06-05T23:47:12.773Z,60.64
2023-06-05T23:49:43.140Z,60.21
2023-06-05T23:52:13.411Z,61.05
2023-06-05T23:54:43.720Z,62.04
2023-06-05T23:57:13.992Z,61.81
2023-06-05T23:59:44.240Z,61.02
